Time;durP1;ratioP1;P1;durP2;ratioP2;P2;SDS_P1;SDS_P2;PMS_P1;PMS_P2;Temp;Humidity;BMP_temperature;BMP_pressure;BME280_temperature;BME280_humidity;BME280_pressure;Samples;Min_cycle;Max_cycle;Signal;HPM_P1;HPM_P2
2021/04/02 00:00:15;;;;;;;35.40;24.80;;;409.90;1715.20;;;;;;4838448;29;20101;-72
2021/04/02 00:02:42;;;;;;;36.03;24.92;;;409.90;1689.60;;;;;;4838148;29;20032;-72
2021/04/02 00:05:14;;;;;;;28.85;23.27;;;409.90;1689.60;;;;;;4843126;29;20030;-72
2021/04/02 00:07:41;;;;;;;34.33;25.52;;;410.00;1689.60;;;;;;4841798;29;20037;-72
2021/04/02 00:10:20;;;;;;;35.92;24.98;;;410.00;1689.60;;;;;;4835290;29;20028;-71
2021/04/02 00:12:46;;;;;;;32.20;26.65;;;410.00;1689.60;;;;;;4837305;29;20030;-71
2021/04/02 00:15:16;;;;;;;35.17;26.52;;;410.10;1689.60;;;;;;4861740;29;20035;-71
2021/04/02 00:17:42;;;;;;;38.92;27.92;;;410.10;1689.60;;;;;;4844271;29;20018;-72
2021/04/02 00:20:10;;;;;;;33.72;24.75;;;410.00;1689.60;;;;;;4843581;29;20877;-72
2021/04/02 00:22:36;;;;;;;33.38;24.13;;;410.00;1689.60;;;;;;4856885;29;20047;-72
2021/04/02 00:25:02;;;;;;;33.55;25.67;;;410.00;1689.60;;;;;;4826379;29;20026;-72
2021/04/02 00:27:28;;;;;;;33.75;25.25;;;409.90;1715.20;;;;;;4843447;29;20054;-72
2021/04/02 00:29:53;;;;;;;35.28;25.70;;;409.90;1715.20;;;;;;4826301;29;20030;-72
2021/04/02 00:32:19;;;;;;;38.80;26.38;;;409.90;1715.20;;;;;;4843244;29;20055;-71
2021/04/02 00:34:45;;;;;;;34.88;25.13;;;409.90;1715.20;;;;;;4847740;29;20025;-71
2021/04/02 00:37:11;;;;;;;33.33;24.70;;;409.80;1715.20;;;;;;4850970;29;20500;-72
2021/04/02 00:39:37;;;;;;;34.20;26.38;;;409.80;1715.20;;;;;;4843592;29;20488;-72
2021/04/02 00:42:03;;;;;;;38.17;27.67;;;409.80;1715.20;;;;;;4842921;29;20022;-71
2021/04/02 00:44:29;;;;;;;35.97;26.95;;;409.80;1740.80;;;;;;4843294;29;20057;-71
2021/04/02 00:46:55;;;;;;;39.78;29.05;;;409.70;1740.80;;;;;;4826151;29;20429;-72
2021/04/02 00:49:20;;;;;;;43.58;28.38;;;409.60;1740.80;;;;;;4826902;29;20504;-72
2021/04/02 00:51:46;;;;;;;35.22;25.92;;;384.90;1715.20;;;;;;4842967;29;20053;-73
2021/04/02 00:54:12;;;;;;;39.55;26.77;;;384.80;1715.20;;;;;;4853771;29;20025;-72
2021/04/02 00:56:38;;;;;;;33.90;24.17;;;384.80;1740.80;;;;;;4845578;29;20484;-72
2021/04/02 00:59:04;;;;;;;28.33;23.40;;;384.80;1740.80;;;;;;4843549;29;20394;-72
2021/04/02 01:01:30;;;;;;;33.95;24.27;;;384.70;1740.80;;;;;;4826449;29;20582;-72
2021/04/02 01:03:56;;;;;;;30.50;24.98;;;384.70;1740.80;;;;;;4842865;29;20101;-72
2021/04/02 01:06:27;;;;;;;28.88;22.85;;;384.60;1766.40;;;;;;4843142;29;20065;-72
2021/04/02 01:08:53;;;;;;;28.73;23.58;;;384.60;1766.40;;;;;;4842843;29;20018;-72
2021/04/02 01:11:21;;;;;;;30.83;23.33;;;384.60;1766.40;;;;;;4842392;29;20420;-72
2021/04/02 01:13:50;;;;;;;31.42;23.70;;;384.50;1766.40;;;;;;4842201;29;20030;-71
2021/04/02 01:16:29;;;;;;;34.58;22.98;;;384.50;1766.40;;;;;;4842709;29;20034;-71
2021/04/02 01:19:04;;;;;;;32.90;26.17;;;384.50;1766.40;;;;;;4813274;29;20479;-72
2021/04/02 01:21:33;;;;;;;29.95;24.67;;;384.40;1766.40;;;;;;4825902;29;20458;-72
2021/04/02 01:24:14;;;;;;;37.67;27.20;;;384.30;1792.00;;;;;;4844252;29;20025;-72
2021/04/02 01:26:58;;;;;;;32.42;24.42;;;384.20;1817.60;;;;;;4850406;29;20103;-72
2021/04/02 01:29:53;;;;;;;35.05;25.13;;;384.20;1817.60;;;;;;4842224;29;20037;-72
2021/04/02 01:32:29;;;;;;;39.63;24.92;;;384.10;1817.60;;;;;;4829117;29;20048;-72
2021/04/02 01:35:09;;;;;;;34.60;25.70;;;384.00;1843.20;;;;;;4848780;29;20519;-72
2021/04/02 01:37:43;;;;;;;30.67;24.52;;;384.00;1843.20;;;;;;4847030;29;20049;-71
2021/04/02 01:40:10;;;;;;;33.13;23.20;;;384.00;1843.20;;;;;;4832286;29;20038;-71
2021/04/02 01:42:40;;;;;;;37.03;25.90;;;384.00;1843.20;;;;;;4842519;29;20022;-71
2021/04/02 01:45:09;;;;;;;32.90;25.60;;;384.00;1868.80;;;;;;4841625;29;20476;-72
2021/04/02 01:47:37;;;;;;;34.50;23.67;;;384.00;1843.20;;;;;;4822462;29;20042;-72
2021/04/02 01:50:05;;;;;;;31.60;25.67;;;384.20;1843.20;;;;;;4832354;29;20026;-71
2021/04/02 01:52:31;;;;;;;28.83;19.33;;;384.20;1843.20;;;;;;4825436;29;20037;-71
2021/04/02 01:54:59;;;;;;;25.88;16.17;;;384.70;1740.80;;;;;;4841373;29;20014;-72
2021/04/02 01:57:27;;;;;;;23.20;16.50;;;409.60;1715.20;;;;;;4841950;29;20033;-72
2021/04/02 01:59:54;;;;;;;19.90;15.90;;;409.70;1715.20;;;;;;4812996;29;20029;-72
2021/04/02 02:02:21;;;;;;;20.02;13.32;;;409.80;1689.60;;;;;;4852745;29;20033;-72
2021/04/02 02:04:48;;;;;;;19.75;13.07;;;409.90;1664.00;;;;;;4843009;29;20049;-72
2021/04/02 02:07:15;;;;;;;25.23;13.13;;;409.90;1689.60;;;;;;4841705;29;20040;-72
2021/04/02 02:09:43;;;;;;;17.75;11.05;;;409.90;1689.60;;;;;;4841864;29;20393;-72
2021/04/02 02:12:14;;;;;;;31.35;13.23;;;409.90;1715.20;;;;;;4825148;29;20030;-71
2021/04/02 02:14:44;;;;;;;17.52;9.63;;;409.90;1715.20;;;;;;4856371;29;20017;-72
2021/04/02 02:17:12;;;;;;;12.27;7.72;;;410.00;1715.20;;;;;;4835487;29;20113;-71
2021/04/02 02:19:40;;;;;;;17.17;8.45;;;410.00;1740.80;;;;;;4840741;29;20101;-72
2021/04/02 02:22:08;;;;;;;21.52;7.10;;;410.00;1740.80;;;;;;4841171;29;20026;-71
2021/04/02 02:24:35;;;;;;;14.90;5.70;;;410.10;1740.80;;;;;;4823924;29;20065;-72
2021/04/02 02:27:03;;;;;;;21.42;5.30;;;410.10;1740.80;;;;;;4853556;29;20388;-72
2021/04/02 02:29:29;;;;;;;27.02;5.60;;;410.20;1740.80;;;;;;4851548;29;20080;-72
2021/04/02 02:31:56;;;;;;;17.30;4.38;;;410.30;1740.80;;;;;;4826440;29;20500;-72
2021/04/02 02:34:21;;;;;;;23.50;5.68;;;410.40;1740.80;;;;;;4840623;29;20495;-72
2021/04/02 02:36:47;;;;;;;36.53;6.05;;;410.50;1740.80;;;;;;4840738;29;20086;-72
2021/04/02 02:39:15;;;;;;;52.28;8.25;;;435.20;1740.80;;;;;;4840754;29;20030;-72
2021/04/02 02:41:42;;;;;;;43.97;8.20;;;435.40;1689.60;;;;;;4840650;29;20109;-72
2021/04/02 02:44:08;;;;;;;63.58;9.13;;;435.60;1664.00;;;;;;4841256;29;20037;-71
2021/04/02 02:46:34;;;;;;;33.10;4.85;;;435.70;1664.00;;;;;;4840201;29;20383;-72
2021/04/02 02:49:07;;;;;;;31.10;6.32;;;435.70;1664.00;;;;;;4840564;29;20558;-72
2021/04/02 02:51:34;;;;;;;29.00;4.90;;;435.80;1638.40;;;;;;4822444;29;20073;-72
2021/04/02 02:54:03;;;;;;;23.70;5.10;;;435.90;1638.40;;;;;;4839742;29;20091;-72
2021/04/02 02:56:31;;;;;;;16.17;4.07;;;436.10;1612.80;;;;;;4838432;29;20034;-72
2021/04/02 02:59:00;;;;;;;12.88;3.75;;;436.00;1638.40;;;;;;4838984;29;20030;-72
2021/04/02 03:01:27;;;;;;;9.43;2.80;;;436.10;1638.40;;;;;;4825686;29;20045;-72
2021/04/02 03:03:54;;;;;;;13.43;3.25;;;435.90;1689.60;;;;;;4838810;29;20022;-73
2021/04/02 03:06:22;;;;;;;7.10;3.33;;;435.70;1766.40;;;;;;4839463;29;20030;-74
2021/04/02 03:08:51;;;;;;;6.05;3.60;;;435.70;1817.60;;;;;;4835910;29;20399;-73
2021/04/02 03:11:19;;;;;;;9.13;3.10;;;435.70;1766.40;;;;;;4838895;29;20384;-72
2021/04/02 03:13:46;;;;;;;7.43;2.92;;;435.50;1766.40;;;;;;4840265;29;20030;-72
2021/04/02 03:16:14;;;;;;;8.15;3.10;;;435.50;1792.00;;;;;;4840518;29;20079;-72
2021/04/02 03:18:41;;;;;;;11.27;2.85;;;435.40;1792.00;;;;;;4830402;29;20026;-72
2021/04/02 03:21:08;;;;;;;6.47;3.15;;;435.40;1792.00;;;;;;4840623;29;20081;-72
2021/04/02 03:23:40;;;;;;;4.20;2.65;;;435.40;1766.40;;;;;;4840880;29;20018;-72
2021/04/02 03:26:06;;;;;;;5.22;2.47;;;435.40;1792.00;;;;;;4840236;29;20050;-73
2021/04/02 03:28:32;;;;;;;2.58;2.00;;;435.20;1792.00;;;;;;4840710;29;20392;-72
2021/04/02 03:30:58;;;;;;;3.10;1.90;;;435.20;1740.80;;;;;;4840206;29;20037;-73
2021/04/02 03:33:27;;;;;;;4.45;2.85;;;435.20;1740.80;;;;;;4840748;29;20037;-73
2021/04/02 03:36:05;;;;;;;5.38;2.60;;;435.20;1792.00;;;;;;4843811;29;20026;-73
2021/04/02 03:38:35;;;;;;;4.90;2.63;;;435.20;1792.00;;;;;;4844257;29;20029;-73
2021/04/02 03:41:04;;;;;;;6.60;2.42;;;410.50;1792.00;;;;;;4828261;29;20120;-72
2021/04/02 03:43:32;;;;;;;5.38;2.95;;;410.40;1792.00;;;;;;4844113;29;20030;-72
2021/04/02 03:46:00;;;;;;;7.82;3.58;;;410.30;1817.60;;;;;;4844581;29;20098;-72
2021/04/02 03:48:27;;;;;;;8.90;3.08;;;410.10;1868.80;;;;;;4844208;29;20074;-72
2021/04/02 03:50:58;;;;;;;5.85;3.15;;;410.00;1894.40;;;;;;4843872;29;20065;-72
2021/04/02 03:53:29;;;;;;;5.50;3.22;;;409.90;1894.40;;;;;;4844478;29;20030;-72
2021/04/02 03:55:57;;;;;;;7.03;3.30;;;409.90;1920.00;;;;;;4842438;29;20026;-73
2021/04/02 03:58:24;;;;;;;7.32;3.58;;;409.80;1920.00;;;;;;4845646;29;20730;-74
2021/04/02 04:01:06;;;;;;;8.07;3.88;;;409.60;1945.60;;;;;;4845518;29;20022;-72
2021/04/02 04:03:33;;;;;;;4.93;3.10;;;409.60;1945.60;;;;;;4843389;29;20068;-72
2021/04/02 04:06:00;;;;;;;7.82;4.00;;;384.90;1920.00;;;;;;4844273;29;20135;-72
2021/04/02 04:08:27;;;;;;;5.68;4.25;;;384.90;1971.20;;;;;;4843492;29;20037;-73
2021/04/02 04:10:54;;;;;;;8.52;4.65;;;384.70;1996.80;;;;;;4845528;29;20420;-72
2021/04/02 04:13:22;;;;;;;9.45;5.32;;;384.70;1996.80;;;;;;4844002;29;20477;-72
2021/04/02 04:15:50;;;;;;;10.60;6.38;;;384.60;2048.00;;;;;;4826767;29;20504;-72
2021/04/02 04:18:18;;;;;;;13.65;7.68;;;384.50;2099.20;;;;;;4826800;29;20117;-72
2021/04/02 04:20:45;;;;;;;13.52;8.57;;;384.40;2099.20;;;;;;4827298;29;20018;-71
2021/04/02 04:23:13;;;;;;;9.98;6.68;;;384.40;2099.20;;;;;;4843461;29;20038;-72
2021/04/02 04:25:39;;;;;;;12.75;6.78;;;384.40;2124.80;;;;;;4843001;29;20034;-72
2021/04/02 04:28:09;;;;;;;9.95;6.57;;;384.30;2124.80;;;;;;4843426;29;20054;-72
2021/04/02 04:30:35;;;;;;;26.05;14.98;;;384.30;2150.40;;;;;;4843328;29;20050;-72
2021/04/02 04:33:02;;;;;;;16.52;8.88;;;384.20;2150.40;;;;;;4854617;29;20387;-72
2021/04/02 04:35:30;;;;;;;20.58;10.63;;;384.20;2176.00;;;;;;4857967;29;20037;-72
2021/04/02 04:37:57;;;;;;;65.15;35.53;;;384.20;2176.00;;;;;;4843658;29;20018;-71
2021/04/02 04:40:24;;;;;;;47.25;26.38;;;384.20;2176.00;;;;;;4843235;29;20030;-72
2021/04/02 04:42:50;;;;;;;31.27;17.40;;;384.30;2176.00;;;;;;4843256;29;20510;-72
2021/04/02 04:45:21;;;;;;;21.17;13.63;;;384.40;2176.00;;;;;;4843266;29;20026;-72
2021/04/02 04:47:48;;;;;;;25.40;13.63;;;384.40;2176.00;;;;;;4836298;29;20029;-72
2021/04/02 04:50:15;;;;;;;41.88;22.20;;;384.50;2150.40;;;;;;4841932;29;20037;-72
2021/04/02 04:53:06;;;;;;;33.65;17.88;;;384.60;2150.40;;;;;;4826271;29;20428;-71
2021/04/02 04:55:34;;;;;;;23.95;13.27;;;384.70;2150.40;;;;;;4841896;29;20046;-73
2021/04/02 04:58:00;;;;;;;21.65;12.48;;;384.80;2150.40;;;;;;4843405;29;20087;-73
2021/04/02 05:00:30;;;;;;;19.13;10.48;;;384.90;2150.40;;;;;;4843051;29;20030;-72
2021/04/02 05:02:57;;;;;;;23.98;15.38;;;384.90;2124.80;;;;;;4826815;29;20037;-72
2021/04/02 05:05:33;;;;;;;34.95;24.77;;;384.90;2176.00;;;;;;4827668;29;20030;-72
2021/04/02 05:08:03;;;;;;;67.65;40.83;;;384.70;2150.40;;;;;;4842856;29;20102;-72
2021/04/02 05:10:31;;;;;;;133.98;91.22;;;384.90;2124.80;;;;;;4843040;29;20029;-71
2021/04/02 05:13:00;;;;;;;120.63;81.75;;;409.60;2150.40;;;;;;4825991;29;20034;-72
2021/04/02 05:15:27;;;;;;;85.15;55.45;;;409.60;2150.40;;;;;;4842769;29;20034;-72
2021/04/02 05:17:54;;;;;;;30.58;21.50;;;409.60;2150.40;;;;;;4844117;29;20022;-72
2021/04/02 05:20:27;;;;;;;22.73;13.88;;;409.60;2099.20;;;;;;4842430;29;20037;-72
2021/04/02 05:22:53;;;;;;;15.13;12.05;;;409.60;2073.60;;;;;;4842169;29;20034;-71
2021/04/02 05:25:18;;;;;;;14.70;11.18;;;409.80;2073.60;;;;;;4842692;29;20042;-72
2021/04/02 05:27:44;;;;;;;18.35;10.18;;;409.80;2073.60;;;;;;4842385;29;20069;-72
2021/04/02 05:30:11;;;;;;;20.15;13.63;;;409.90;2073.60;;;;;;4842714;29;20380;-73
2021/04/02 05:32:37;;;;;;;33.67;22.88;;;410.00;2048.00;;;;;;4842092;29;20026;-71
2021/04/02 05:35:03;;;;;;;33.40;22.55;;;410.10;2048.00;;;;;;4841774;29;20034;-71
2021/04/02 05:37:29;;;;;;;55.55;36.78;;;410.20;2022.40;;;;;;4842300;29;20388;-72
2021/04/02 05:39:55;;;;;;;22.45;14.85;;;410.30;2022.40;;;;;;4841905;29;20021;-72
2021/04/02 05:42:23;;;;;;;41.88;25.17;;;410.30;1996.80;;;;;;4848955;29;20121;-73
2021/04/02 05:44:51;;;;;;;16.23;13.13;;;410.40;1996.80;;;;;;4841924;29;20113;-72
2021/04/02 05:47:17;;;;;;;50.30;32.35;;;410.50;1996.80;;;;;;4842418;29;20480;-72
2021/04/02 05:49:45;;;;;;;19.73;12.00;;;435.20;1996.80;;;;;;4842118;29;20038;-72
2021/04/02 05:52:12;;;;;;;13.00;7.60;;;435.40;1996.80;;;;;;4842528;29;20493;-72
2021/04/02 05:54:43;;;;;;;15.52;8.75;;;435.50;1945.60;;;;;;4825949;29;20029;-72
2021/04/02 05:57:09;;;;;;;11.32;9.35;;;435.70;1945.60;;;;;;4825293;29;20046;-72
2021/04/02 05:59:37;;;;;;;8.85;7.82;;;435.80;1920.00;;;;;;4841480;29;20041;-73
2021/04/02 06:02:04;;;;;;;11.52;8.10;;;435.80;1945.60;;;;;;4841327;29;20026;-72
2021/04/02 06:04:31;;;;;;;7.78;5.93;;;435.80;1920.00;;;;;;4841584;29;20507;-72
2021/04/02 06:06:57;;;;;;;12.27;7.60;;;435.80;1920.00;;;;;;4841536;29;20487;-72
2021/04/02 06:09:24;;;;;;;13.30;6.88;;;435.70;1920.00;;;;;;4841721;29;20034;-72
2021/04/02 06:11:50;;;;;;;10.65;6.78;;;435.70;1920.00;;;;;;4841371;29;20029;-72
2021/04/02 06:14:16;;;;;;;11.80;6.70;;;435.70;1920.00;;;;;;4841062;29;20030;-72
2021/04/02 06:16:52;;;;;;;10.95;6.13;;;435.80;1920.00;;;;;;4829515;29;20493;-72
2021/04/02 06:19:18;;;;;;;17.15;6.47;;;435.70;1920.00;;;;;;4837352;29;20022;-72
2021/04/02 06:21:49;;;;;;;12.95;6.82;;;435.80;1920.00;;;;;;4839742;29;20483;-72
2021/04/02 06:24:33;;;;;;;11.38;6.25;;;435.80;1945.60;;;;;;4840598;29;20514;-72
2021/04/02 06:27:03;;;;;;;8.48;6.85;;;435.80;1920.00;;;;;;4839911;29;20115;-71
2021/04/02 06:29:30;;;;;;;17.60;7.20;;;435.90;1920.00;;;;;;4840301;29;20495;-72
2021/04/02 06:31:57;;;;;;;9.80;6.85;;;435.80;1920.00;;;;;;4831997;29;20037;-72
2021/04/02 06:34:27;;;;;;;18.70;8.20;;;435.80;1920.00;;;;;;4824553;29;20079;-71
2021/04/02 06:37:02;;;;;;;15.27;7.10;;;435.80;1920.00;;;;;;4840666;29;20022;-71
2021/04/02 06:39:32;;;;;;;14.15;6.13;;;435.80;1945.60;;;;;;4840818;29;20030;-72
2021/04/02 06:42:00;;;;;;;9.10;5.85;;;435.90;1920.00;;;;;;4824696;29;20041;-72
2021/04/02 06:44:31;;;;;;;16.88;7.55;;;435.90;1920.00;;;;;;4824046;29;20069;-71
2021/04/02 06:46:58;;;;;;;8.68;5.45;;;436.00;1920.00;;;;;;4824521;29;20034;-71
2021/04/02 06:49:25;;;;;;;18.70;7.28;;;435.90;1945.60;;;;;;4812360;29;20110;-72
2021/04/02 06:51:52;;;;;;;11.25;7.05;;;435.90;1971.20;;;;;;4835592;29;20041;-75
2021/04/02 06:54:21;;;;;;;11.93;6.13;;;435.70;1996.80;;;;;;4837591;29;20148;-72
2021/04/02 06:57:09;;;;;;;12.32;6.95;;;435.80;1996.80;;;;;;4837540;29;20037;-72
2021/04/02 06:59:35;;;;;;;15.88;7.47;;;435.80;1996.80;;;;;;4836902;29;20033;-72
2021/04/02 07:02:04;;;;;;;14.80;7.95;;;435.70;1996.80;;;;;;4840324;29;20034;-72
2021/04/02 07:04:31;;;;;;;13.85;7.80;;;435.70;2022.40;;;;;;4840607;29;20041;-72
2021/04/02 07:06:59;;;;;;;13.20;7.90;;;435.80;1996.80;;;;;;4840704;29;20151;-72
2021/04/02 07:09:27;;;;;;;11.25;7.30;;;436.10;1996.80;;;;;;4839017;29;20030;-73
2021/04/02 07:11:59;;;;;;;15.98;7.88;;;460.90;1971.20;;;;;;4824366;29;20372;-72
2021/04/02 07:14:26;;;;;;;12.95;7.82;;;461.10;1945.60;;;;;;4840321;29;20200;-72
2021/04/02 07:16:54;;;;;;;12.77;6.88;;;461.40;1894.40;;;;;;4840574;29;20026;-72
2021/04/02 07:19:20;;;;;;;12.13;7.07;;;461.50;1843.20;;;;;;4840045;29;20050;-72
2021/04/02 07:21:49;;;;;;;12.60;6.82;;;461.60;1843.20;;;;;;4840544;29;20042;-72
2021/04/02 07:24:18;;;;;;;9.68;6.38;;;486.40;1817.60;;;;;;4840198;29;20082;-72
2021/04/02 07:26:46;;;;;;;11.20;6.35;;;486.90;1766.40;;;;;;4827182;29;20074;-72
2021/04/02 07:29:13;;;;;;;12.32;7.18;;;486.90;1740.80;;;;;;4840663;29;20042;-72
2021/04/02 07:31:39;;;;;;;12.15;6.78;;;487.00;1740.80;;;;;;4822614;29;20038;-72
2021/04/02 07:34:06;;;;;;;9.23;5.82;;;487.20;1715.20;;;;;;4840265;29;20022;-72
2021/04/02 07:36:35;;;;;;;11.85;7.25;;;512.10;1664.00;;;;;;4840015;29;20030;-72
2021/04/02 07:39:04;;;;;;;12.60;7.43;;;512.30;1638.40;;;;;;4840466;29;20046;-72
2021/04/02 07:41:35;;;;;;;14.18;7.65;;;512.30;1638.40;;;;;;4823635;29;20036;-72
2021/04/02 07:44:05;;;;;;;13.93;7.60;;;512.40;1638.40;;;;;;4839070;29;20034;-72
2021/04/02 07:46:30;;;;;;;14.35;7.28;;;512.30;1638.40;;;;;;4833459;29;20464;-72
2021/04/02 07:49:00;;;;;;;12.38;7.18;;;512.30;1612.80;;;;;;4839216;29;20036;-72
2021/04/02 07:51:47;;;;;;;15.38;8.20;;;512.40;1612.80;;;;;;4829468;29;20098;-72
2021/04/02 07:54:14;;;;;;;11.70;8.68;;;512.70;1587.20;;;;;;4839296;29;20026;-72
2021/04/02 07:56:39;;;;;;;10.70;7.60;;;512.60;1587.20;;;;;;4822826;29;20049;-72
2021/04/02 07:59:07;;;;;;;13.32;7.93;;;512.70;1587.20;;;;;;4823054;29;20038;-72
2021/04/02 08:01:33;;;;;;;12.20;6.82;;;537.60;1587.20;;;;;;4839440;29;20109;-72
2021/04/02 08:04:04;;;;;;;15.80;8.75;;;537.90;1561.60;;;;;;4839884;29;20073;-72
2021/04/02 08:06:38;;;;;;;15.77;7.95;;;538.00;1536.00;;;;;;4831351;29;20030;-72
2021/04/02 08:09:08;;;;;;;16.20;8.68;;;537.90;1510.40;;;;;;4838446;29;20034;-72
2021/04/02 08:11:44;;;;;;;13.88;7.80;;;537.90;1510.40;;;;;;4839493;29;20087;-74
2021/04/02 08:14:11;;;;;;;;;;;537.90;1510.40;;;;;;4839723;29;20100;-74
2021/04/02 08:16:45;;;;;;;12.55;8.70;;;538.40;1459.20;;;;;;4839770;29;19920;-75
2021/04/02 08:19:16;;;;;;;15.45;9.13;;;563.50;1433.60;;;;;;4822246;29;20061;-74
2021/04/02 08:21:54;;;;;;;21.15;10.80;;;563.40;1459.20;;;;;;4840666;29;20034;-73
2021/04/02 08:24:23;;;;;;;19.77;9.82;;;563.40;1433.60;;;;;;4840031;29;20564;-74
2021/04/02 08:26:50;;;;;;;17.15;10.65;;;563.30;1408.00;;;;;;4839257;29;20453;-74
2021/04/02 08:29:18;;;;;;;15.07;8.32;;;563.40;1408.00;;;;;;4842332;29;20037;-73
2021/04/02 08:31:47;;;;;;;18.65;9.60;;;563.40;1382.40;;;;;;4824987;29;20113;-74
2021/04/02 08:34:14;;;;;;;15.65;8.45;;;563.50;1382.40;;;;;;4841868;29;20034;-74
2021/04/02 08:36:41;;;;;;;18.50;8.57;;;563.40;1408.00;;;;;;4839172;29;20075;-73
2021/04/02 08:39:07;;;;;;;17.17;8.27;;;563.40;1382.40;;;;;;4841405;29;20030;-74
2021/04/02 08:41:33;;;;;;;14.18;9.82;;;563.40;1382.40;;;;;;4843147;29;20029;-74
2021/04/02 08:43:59;;;;;;;18.48;9.70;;;563.50;1408.00;;;;;;4825742;29;20125;-74
2021/04/02 08:46:46;;;;;;;18.67;10.63;;;563.60;1382.40;;;;;;4825828;29;20042;-74
2021/04/02 08:49:14;;;;;;;22.50;12.27;;;563.60;1382.40;;;;;;4824559;29;20033;-74
2021/04/02 08:51:45;;;;;;;13.45;9.10;;;563.60;1408.00;;;;;;4842203;29;20033;-74
2021/04/02 08:54:13;;;;;;;17.52;9.77;;;563.80;1356.80;;;;;;4841190;29;20046;-73
2021/04/02 08:56:40;;;;;;;17.65;9.95;;;563.70;1356.80;;;;;;4842702;29;20037;-74
2021/04/02 08:59:09;;;;;;;13.35;10.13;;;563.70;1382.40;;;;;;4843152;29;20109;-74
2021/04/02 09:01:41;;;;;;;15.65;9.65;;;563.80;1356.80;;;;;;4842420;29;20057;-74
2021/04/02 09:04:08;;;;;;;21.80;12.90;;;563.70;1382.40;;;;;;4842499;29;20384;-74
2021/04/02 09:06:34;;;;;;;19.35;9.88;;;563.70;1382.40;;;;;;4842077;29;20034;-74
2021/04/02 09:09:01;;;;;;;14.52;9.82;;;563.70;1356.80;;;;;;4825492;29;20034;-74
2021/04/02 09:11:27;;;;;;;16.65;9.90;;;563.60;1382.40;;;;;;4842383;29;20059;-75
2021/04/02 09:13:53;;;;;;;20.05;10.40;;;563.40;1382.40;;;;;;4841789;29;20018;-74
2021/04/02 09:16:20;;;;;;;16.67;11.07;;;563.40;1382.40;;;;;;4826449;29;20445;-74
2021/04/02 09:18:56;;;;;;;16.10;9.85;;;563.70;1382.40;;;;;;4826238;29;20026;-74
2021/04/02 09:21:24;;;;;;;21.75;12.30;;;563.70;1382.40;;;;;;4842832;29;20487;-74
2021/04/02 09:23:53;;;;;;;17.38;11.05;;;563.90;1382.40;;;;;;4840054;29;20034;-75
2021/04/02 09:26:20;;;;;;;17.52;11.68;;;564.00;1305.60;;;;;;4825297;29;20062;-75
2021/04/02 09:28:47;;;;;;;19.65;11.68;;;564.00;1305.60;;;;;;4841661;29;20038;-74
2021/04/02 09:31:26;;;;;;;19.08;12.35;;;589.00;1254.40;;;;;;4841222;29;20026;-75
2021/04/02 09:34:01;;;;;;;19.95;10.70;;;589.20;1280.00;;;;;;4841395;29;20034;-74
2021/04/02 09:36:29;;;;;;;17.38;10.30;;;589.60;1228.80;;;;;;4824868;29;20105;-74
2021/04/02 09:39:10;;;;;;;17.08;11.60;;;614.40;1203.20;;;;;;4841297;29;20392;-75
2021/04/02 09:42:04;;;;;;;16.90;11.40;;;614.80;1177.60;;;;;;4823753;29;20057;-75
2021/04/02 09:44:39;;;;;;;17.17;10.88;;;640.00;1126.40;;;;;;4837118;29;20037;-77
2021/04/02 09:47:09;;;;;;;17.85;13.18;;;640.00;1126.40;;;;;;4840764;29;20029;-75
2021/04/02 09:49:37;;;;;;;16.52;11.27;;;614.90;1177.60;;;;;;4841525;29;20034;-77
2021/04/02 09:52:05;;;;;;;21.42;11.93;;;614.60;1203.20;;;;;;4838950;29;20034;-74
2021/04/02 09:54:32;;;;;;;20.48;13.02;;;614.70;1203.20;;;;;;4838075;29;20361;-74
2021/04/02 09:57:01;;;;;;;16.85;12.32;;;614.60;1152.00;;;;;;4824215;29;20066;-74
2021/04/02 09:59:26;;;;;;;16.75;11.77;;;589.70;1177.60;;;;;;4839699;29;20038;-74
2021/04/02 10:01:53;;;;;;;21.38;12.50;;;589.60;1177.60;;;;;;4822765;29;20547;-74
2021/04/02 10:04:19;;;;;;;22.70;12.60;;;589.50;1177.60;;;;;;4839271;29;20096;-74
2021/04/02 10:06:45;;;;;;;18.33;12.48;;;589.30;1203.20;;;;;;4839399;29;20479;-74
2021/04/02 10:09:12;;;;;;;22.40;14.23;;;589.00;1228.80;;;;;;4824324;29;20041;-74
2021/04/02 10:11:50;;;;;;;18.42;12.95;;;589.00;1228.80;;;;;;4838664;29;20468;-74
2021/04/02 10:14:18;;;;;;;23.02;13.38;;;588.80;1228.80;;;;;;4835405;29;20112;-74
2021/04/02 10:16:45;;;;;;;30.35;13.77;;;588.90;1228.80;;;;;;4840340;29;20018;-76
2021/04/02 10:19:12;;;;;;;19.90;12.20;;;588.80;1254.40;;;;;;4828981;29;20724;-74
2021/04/02 10:21:38;;;;;;;24.45;13.65;;;588.80;1254.40;;;;;;4839653;29;20066;-74
2021/04/02 10:24:05;;;;;;;20.70;13.50;;;588.80;1254.40;;;;;;4824462;29;20033;-74
2021/04/02 10:26:30;;;;;;;24.08;14.57;;;588.80;1254.40;;;;;;4781002;29;1122523;-73
2021/04/02 10:28:56;;;;;;;31.25;14.75;;;589.10;1254.40;;;;;;4813076;29;20038;-73
2021/04/02 10:31:22;;;;;;;24.45;14.52;;;589.10;1254.40;;;;;;4840622;29;20030;-73
2021/04/02 10:33:49;;;;;;;23.60;15.68;;;588.80;1228.80;;;;;;4839265;29;20022;-73
2021/04/02 10:36:15;;;;;;;23.25;14.15;;;589.20;1203.20;;;;;;4840422;29;20816;-73
2021/04/02 10:38:41;;;;;;;20.95;15.02;;;589.60;1177.60;;;;;;4840995;29;20104;-73
2021/04/02 10:41:07;;;;;;;26.02;15.25;;;614.80;1152.00;;;;;;4822336;29;20026;-74
2021/04/02 10:43:33;;;;;;;27.05;14.55;;;640.10;1100.80;;;;;;4824214;29;20056;-73
2021/04/02 10:46:00;;;;;;;23.45;15.30;;;640.50;1024.00;;;;;;4840731;29;20535;-73
2021/04/02 10:48:26;;;;;;;23.35;14.77;;;640.70;1024.00;;;;;;4840134;29;20026;-71
2021/04/02 10:50:53;;;;;;;27.08;16.35;;;640.70;1024.00;;;;;;4823846;29;20396;-73
2021/04/02 10:53:19;;;;;;;21.10;13.68;;;640.80;1024.00;;;;;;4823148;29;20034;-71
2021/04/02 10:55:45;;;;;;;25.58;18.08;;;640.20;1024.00;;;;;;4821961;29;20078;-71
2021/04/02 10:58:11;;;;;;;26.15;14.82;;;615.30;1075.20;;;;;;4834603;29;20274;-73
2021/04/02 11:00:38;;;;;;;18.10;14.63;;;640.10;1075.20;;;;;;4822884;29;20452;-72
2021/04/02 11:03:05;;;;;;;26.88;17.30;;;665.90;1049.60;;;;;;4836040;29;20026;-72
2021/04/02 11:05:32;;;;;;;24.20;15.45;;;640.80;1024.00;;;;;;4837617;29;20045;-71
2021/04/02 11:07:58;;;;;;;21.65;14.10;;;665.80;998.40;;;;;;4822197;29;20048;-68
2021/04/02 11:10:24;;;;;;;24.33;13.98;;;665.80;998.40;;;;;;4835966;29;20030;-71
2021/04/02 11:12:50;;;;;;;22.70;13.73;;;691.20;998.40;;;;;;4820946;29;20075;-71
2021/04/02 11:15:18;;;;;;;20.50;13.15;;;691.40;921.60;;;;;;4838370;29;20121;-71
2021/04/02 11:17:45;;;;;;;21.67;13.50;;;691.30;896.00;;;;;;4835035;29;20022;-73
2021/04/02 11:20:16;;;;;;;19.45;12.35;;;691.20;896.00;;;;;;4835777;29;20022;-68
2021/04/02 11:22:43;;;;;;;21.92;12.93;;;691.80;844.80;;;;;;4829606;29;20037;-71
2021/04/02 11:25:10;;;;;;;19.33;11.18;;;691.40;819.20;;;;;;4822857;29;20040;-71
2021/04/02 11:27:37;;;;;;;22.90;12.93;;;717.00;793.60;;;;;;4821739;29;20492;-73
2021/04/02 11:30:07;;;;;;;21.30;11.13;;;691.30;844.80;;;;;;4835442;29;20026;-71
2021/04/02 11:32:33;;;;;;;28.52;12.77;;;665.80;870.40;;;;;;4821758;29;20053;-73
2021/04/02 11:34:59;;;;;;;23.35;12.35;;;640.00;896.00;;;;;;4832882;29;20548;-71
2021/04/02 11:37:25;;;;;;;30.08;16.27;;;614.70;947.20;;;;;;4833823;29;20030;-74
2021/04/02 11:39:51;;;;;;;19.92;12.63;;;589.70;998.40;;;;;;4840513;29;20042;-71
2021/04/02 11:42:16;;;;;;;18.55;11.27;;;589.30;1100.80;;;;;;4821401;29;20038;-72
2021/04/02 11:44:42;;;;;;;21.73;13.85;;;588.80;1152.00;;;;;;4839907;29;20125;-71
2021/04/02 11:47:08;;;;;;;20.23;11.93;;;563.90;1177.60;;;;;;4822867;29;20042;-71
2021/04/02 11:49:37;;;;;;;22.90;14.43;;;563.70;1203.20;;;;;;4838545;29;20403;-71
2021/04/02 11:52:03;;;;;;;29.20;19.17;;;563.60;1254.40;;;;;;4838733;29;20065;-72
2021/04/02 11:54:29;;;;;;;24.77;15.25;;;563.50;1280.00;;;;;;4839937;29;20050;-72
2021/04/02 11:56:55;;;;;;;20.92;14.52;;;563.50;1280.00;;;;;;4841709;29;20053;-71
2021/04/02 11:59:21;;;;;;;30.92;16.75;;;563.70;1254.40;;;;;;4843526;29;20038;-72
2021/04/02 12:01:46;;;;;;;31.48;21.52;;;564.00;1254.40;;;;;;4827343;29;20453;-71
2021/04/02 12:04:13;;;;;;;25.67;16.90;;;589.40;1203.20;;;;;;4826392;29;20053;-71
2021/04/02 12:06:40;;;;;;;26.13;14.52;;;614.40;1152.00;;;;;;4824992;29;20084;-72
2021/04/02 12:09:06;;;;;;;24.38;15.10;;;640.60;1024.00;;;;;;4825137;29;20022;-72
2021/04/02 12:11:33;;;;;;;29.27;16.52;;;615.20;1075.20;;;;;;4827785;29;20041;-74